Terminal Aerodrome Forecast
Issued by NWS

Home | Current Version | Previous Version | Text Only | Print | Product List | Glossary Off
Versions: 1 2 3 4 5 6 7 8 9 10 11 12 13 14

000
FTUS43 KIWX 231700
TAFSBN
TAF
KSBN 231734Z 2318/2418 21007KT P6SM SCT250
     FM240000 18004KT P6SM BKN250
     FM240600 19005KT P6SM BKN050 OVC100
     FM241200 22007KT P6SM BKN025=

USA.gov is the U.S. government's official web portal to all federal, state and local government web resources and services.